sensor_id;sensor_type;location;lat;lon;timestamp;P1;P2;P0
57049;PMS7003;42935;50.966;16.992;2022-08-19T00:00:04;35;31;20
57049;PMS7003;42935;50.966;16.992;2022-08-19T00:03:19;28;26;18
57049;PMS7003;42935;50.966;16.992;2022-08-19T00:06:36;32;26;18
57049;PMS7003;42935;50.966;16.992;2022-08-19T00:09:49;31;27;19
57049;PMS7003;42935;50.966;16.992;2022-08-19T00:13:05;36;30;19
57049;PMS7003;42935;50.966;16.992;2022-08-19T00:16:23;31;29;20
57049;PMS7003;42935;50.966;16.992;2022-08-19T00:19:37;28;25;18
57049;PMS7003;42935;50.966;16.992;2022-08-19T00:22:51;29;27;19
57049;PMS7003;42935;50.966;16.992;2022-08-19T00:26:08;31;27;18
57049;PMS7003;42935;50.966;16.992;2022-08-19T00:29:22;29;26;19
57049;PMS7003;42935;50.966;16.992;2022-08-19T00:32:34;26;24;18
57049;PMS7003;42935;50.966;16.992;2022-08-19T00:35:48;28;27;19
57049;PMS7003;42935;50.966;16.992;2022-08-19T00:39:03;28;26;18
57049;PMS7003;42935;50.966;16.992;2022-08-19T00:42:18;29;26;18
57049;PMS7003;42935;50.966;16.992;2022-08-19T00:45:35;29;26;17
57049;PMS7003;42935;50.966;16.992;2022-08-19T00:48:51;31;28;20
57049;PMS7003;42935;50.966;16.992;2022-08-19T00:52:04;30;25;18
57049;PMS7003;42935;50.966;16.992;2022-08-19T00:55:23;33;29;20
57049;PMS7003;42935;50.966;16.992;2022-08-19T00:58:39;31;28;20
57049;PMS7003;42935;50.966;16.992;2022-08-19T01:02:00;38;31;19
57049;PMS7003;42935;50.966;16.992;2022-08-19T01:05:18;29;26;18
57049;PMS7003;42935;50.966;16.992;2022-08-19T01:08:35;29;26;19
57049;PMS7003;42935;50.966;16.992;2022-08-19T01:11:45;31;28;20
57049;PMS7003;42935;50.966;16.992;2022-08-19T01:14:53;32;28;20
57049;PMS7003;42935;50.966;16.992;2022-08-19T01:18:06;31;27;19
57049;PMS7003;42935;50.966;16.992;2022-08-19T01:21:22;27;26;19
57049;PMS7003;42935;50.966;16.992;2022-08-19T01:24:39;28;27;19
57049;PMS7003;42935;50.966;16.992;2022-08-19T01:27:51;31;29;20
57049;PMS7003;42935;50.966;16.992;2022-08-19T01:31:14;36;32;21
57049;PMS7003;42935;50.966;16.992;2022-08-19T01:34:26;31;27;19
57049;PMS7003;42935;50.966;16.992;2022-08-19T01:41:04;32;30;19
57049;PMS7003;42935;50.966;16.992;2022-08-19T01:44:15;26;25;19
57049;PMS7003;42935;50.966;16.992;2022-08-19T01:47:35;29;27;19
57049;PMS7003;42935;50.966;16.992;2022-08-19T01:50:55;32;29;20
57049;PMS7003;42935;50.966;16.992;2022-08-19T01:54:07;28;28;20
57049;PMS7003;42935;50.966;16.992;2022-08-19T01:57:23;30;27;19
57049;PMS7003;42935;50.966;16.992;2022-08-19T02:00:40;36;26;18
57049;PMS7003;42935;50.966;16.992;2022-08-19T02:03:51;31;29;20
57049;PMS7003;42935;50.966;16.992;2022-08-19T02:07:08;34;28;18
57049;PMS7003;42935;50.966;16.992;2022-08-19T02:10:20;31;26;18
57049;PMS7003;42935;50.966;16.992;2022-08-19T02:13:37;34;29;18
57049;PMS7003;42935;50.966;16.992;2022-08-19T02:16:47;32;29;20
57049;PMS7003;42935;50.966;16.992;2022-08-19T02:19:54;30;27;18
57049;PMS7003;42935;50.966;16.992;2022-08-19T02:23:01;30;27;20
57049;PMS7003;42935;50.966;16.992;2022-08-19T02:26:20;32;27;18
57049;PMS7003;42935;50.966;16.992;2022-08-19T02:29:35;31;28;19
57049;PMS7003;42935;50.966;16.992;2022-08-19T02:32:45;27;25;18
57049;PMS7003;42935;50.966;16.992;2022-08-19T02:35:56;28;26;18
57049;PMS7003;42935;50.966;16.992;2022-08-19T02:39:09;29;26;19
57049;PMS7003;42935;50.966;16.992;2022-08-19T02:42:20;30;26;17
57049;PMS7003;42935;50.966;16.992;2022-08-19T02:45:38;31;27;19
57049;PMS7003;42935;50.966;16.992;2022-08-19T02:49:02;33;27;19
57049;PMS7003;42935;50.966;16.992;2022-08-19T02:52:13;28;26;19
57049;PMS7003;42935;50.966;16.992;2022-08-19T02:55:19;35;27;20
57049;PMS7003;42935;50.966;16.992;2022-08-19T02:58:30;30;26;17
57049;PMS7003;42935;50.966;16.992;2022-08-19T03:01:41;30;28;19
57049;PMS7003;42935;50.966;16.992;2022-08-19T03:04:55;30;27;18
57049;PMS7003;42935;50.966;16.992;2022-08-19T03:08:06;28;27;19
57049;PMS7003;42935;50.966;16.992;2022-08-19T03:11:24;30;27;19
57049;PMS7003;42935;50.966;16.992;2022-08-19T03:14:38;30;28;19
57049;PMS7003;42935;50.966;16.992;2022-08-19T03:17:49;30;26;19
57049;PMS7003;42935;50.966;16.992;2022-08-19T03:21:08;30;28;20
57049;PMS7003;42935;50.966;16.992;2022-08-19T03:24:19;33;29;20
57049;PMS7003;42935;50.966;16.992;2022-08-19T03:27:30;31;28;19
57049;PMS7003;42935;50.966;16.992;2022-08-19T03:34:11;38;30;20
57049;PMS7003;42935;50.966;16.992;2022-08-19T03:37:25;31;28;21
57049;PMS7003;42935;50.966;16.992;2022-08-19T03:40:44;36;30;20
57049;PMS7003;42935;50.966;16.992;2022-08-19T03:43:57;37;31;21
57049;PMS7003;42935;50.966;16.992;2022-08-19T03:47:16;35;31;20
57049;PMS7003;42935;50.966;16.992;2022-08-19T03:50:31;36;31;21
57049;PMS7003;42935;50.966;16.992;2022-08-19T03:53:42;36;30;21
57049;PMS7003;42935;50.966;16.992;2022-08-19T03:56:53;32;28;20
57049;PMS7003;42935;50.966;16.992;2022-08-19T04:00:41;33;27;20
57049;PMS7003;42935;50.966;16.992;2022-08-19T04:03:57;34;30;20
57049;PMS7003;42935;50.966;16.992;2022-08-19T04:07:13;38;32;21
57049;PMS7003;42935;50.966;16.992;2022-08-19T04:10:36;39;32;21
57049;PMS7003;42935;50.966;16.992;2022-08-19T04:13:48;31;28;19
57049;PMS7003;42935;50.966;16.992;2022-08-19T04:17:04;38;33;22
57049;PMS7003;42935;50.966;16.992;2022-08-19T04:20:20;42;34;22
57049;PMS7003;42935;50.966;16.992;2022-08-19T04:23:31;39;31;21
57049;PMS7003;42935;50.966;16.992;2022-08-19T04:26:48;42;34;22
57049;PMS7003;42935;50.966;16.992;2022-08-19T04:29:56;39;33;22
57049;PMS7003;42935;50.966;16.992;2022-08-19T04:33:11;42;34;23
57049;PMS7003;42935;50.966;16.992;2022-08-19T04:36:26;38;34;24
57049;PMS7003;42935;50.966;16.992;2022-08-19T04:40:11;40;33;22
57049;PMS7003;42935;50.966;16.992;2022-08-19T04:43:34;45;35;23
57049;PMS7003;42935;50.966;16.992;2022-08-19T04:47:16;40;35;24
57049;PMS7003;42935;50.966;16.992;2022-08-19T04:50:26;42;34;24
57049;PMS7003;42935;50.966;16.992;2022-08-19T04:53:37;45;36;25
57049;PMS7003;42935;50.966;16.992;2022-08-19T04:56:55;43;35;23
57049;PMS7003;42935;50.966;16.992;2022-08-19T05:00:08;44;37;25
57049;PMS7003;42935;50.966;16.992;2022-08-19T05:03:21;44;37;25
57049;PMS7003;42935;50.966;16.992;2022-08-19T05:06:34;40;34;22
57049;PMS7003;42935;50.966;16.992;2022-08-19T05:09:45;45;37;24
57049;PMS7003;42935;50.966;16.992;2022-08-19T05:13:05;42;34;22
57049;PMS7003;42935;50.966;16.992;2022-08-19T05:16:28;43;35;24
57049;PMS7003;42935;50.966;16.992;2022-08-19T05:19:39;41;31;22
57049;PMS7003;42935;50.966;16.992;2022-08-19T05:23:01;39;32;22
57049;PMS7003;42935;50.966;16.992;2022-08-19T05:26:21;38;32;21
57049;PMS7003;42935;50.966;16.992;2022-08-19T05:29:32;36;31;22
57049;PMS7003;42935;50.966;16.992;2022-08-19T05:32:49;37;32;21
57049;PMS7003;42935;50.966;16.992;2022-08-19T05:36:04;39;33;22
57049;PMS7003;42935;50.966;16.992;2022-08-19T05:39:13;41;33;22
57049;PMS7003;42935;50.966;16.992;2022-08-19T05:42:27;40;34;22
57049;PMS7003;42935;50.966;16.992;2022-08-19T05:45:45;41;35;22
57049;PMS7003;42935;50.966;16.992;2022-08-19T05:48:55;37;31;22
57049;PMS7003;42935;50.966;16.992;2022-08-19T05:52:07;41;34;24
57049;PMS7003;42935;50.966;16.992;2022-08-19T05:55:25;41;34;23
57049;PMS7003;42935;50.966;16.992;2022-08-19T05:59:10;42;36;25
57049;PMS7003;42935;50.966;16.992;2022-08-19T06:02:23;40;33;23
57049;PMS7003;42935;50.966;16.992;2022-08-19T06:05:37;41;35;24
57049;PMS7003;42935;50.966;16.992;2022-08-19T06:08:51;43;36;23
57049;PMS7003;42935;50.966;16.992;2022-08-19T06:12:01;39;32;23
57049;PMS7003;42935;50.966;16.992;2022-08-19T06:15:17;41;34;23
57049;PMS7003;42935;50.966;16.992;2022-08-19T06:18:27;40;32;22
57049;PMS7003;42935;50.966;16.992;2022-08-19T06:21:40;40;34;22
57049;PMS7003;42935;50.966;16.992;2022-08-19T06:24:54;41;33;23
57049;PMS7003;42935;50.966;16.992;2022-08-19T06:28:12;40;33;22
57049;PMS7003;42935;50.966;16.992;2022-08-19T06:31:25;36;32;21
57049;PMS7003;42935;50.966;16.992;2022-08-19T06:34:43;40;34;23
57049;PMS7003;42935;50.966;16.992;2022-08-19T06:37:57;37;31;22
57049;PMS7003;42935;50.966;16.992;2022-08-19T06:41:12;36;32;21
57049;PMS7003;42935;50.966;16.992;2022-08-19T06:44:32;33;28;19
57049;PMS7003;42935;50.966;16.992;2022-08-19T06:47:49;28;26;18
57049;PMS7003;42935;50.966;16.992;2022-08-19T06:51:03;26;24;18
57049;PMS7003;42935;50.966;16.992;2022-08-19T06:54:15;25;22;16
57049;PMS7003;42935;50.966;16.992;2022-08-19T06:57:27;22;20;15
57049;PMS7003;42935;50.966;16.992;2022-08-19T07:00:44;21;19;15
57049;PMS7003;42935;50.966;16.992;2022-08-19T07:03:54;20;20;16
57049;PMS7003;42935;50.966;16.992;2022-08-19T07:07:06;25;23;15
57049;PMS7003;42935;50.966;16.992;2022-08-19T07:10:21;23;21;15
57049;PMS7003;42935;50.966;16.992;2022-08-19T07:13:32;21;19;13
57049;PMS7003;42935;50.966;16.992;2022-08-19T07:16:51;19;18;13
57049;PMS7003;42935;50.966;16.992;2022-08-19T07:20:06;21;18;14
57049;PMS7003;42935;50.966;16.992;2022-08-19T07:23:17;19;18;13
57049;PMS7003;42935;50.966;16.992;2022-08-19T07:26:30;20;18;14
57049;PMS7003;42935;50.966;16.992;2022-08-19T07:29:43;19;18;14
57049;PMS7003;42935;50.966;16.992;2022-08-19T07:32:54;21;20;14
57049;PMS7003;42935;50.966;16.992;2022-08-19T07:36:06;24;22;17
57049;PMS7003;42935;50.966;16.992;2022-08-19T07:39:27;24;21;15
57049;PMS7003;42935;50.966;16.992;2022-08-19T07:42:42;19;19;15
57049;PMS7003;42935;50.966;16.992;2022-08-19T07:45:54;21;20;14
57049;PMS7003;42935;50.966;16.992;2022-08-19T07:49:06;23;21;15
57049;PMS7003;42935;50.966;16.992;2022-08-19T07:52:32;25;21;15
57049;PMS7003;42935;50.966;16.992;2022-08-19T07:55:46;25;21;16
57049;PMS7003;42935;50.966;16.992;2022-08-19T07:58:58;25;20;15
57049;PMS7003;42935;50.966;16.992;2022-08-19T08:02:08;21;19;15
57049;PMS7003;42935;50.966;16.992;2022-08-19T08:05:19;23;21;16
57049;PMS7003;42935;50.966;16.992;2022-08-19T08:08:41;24;22;17
57049;PMS7003;42935;50.966;16.992;2022-08-19T08:12:04;22;21;15
57049;PMS7003;42935;50.966;16.992;2022-08-19T08:15:18;21;21;15
57049;PMS7003;42935;50.966;16.992;2022-08-19T08:18:28;19;18;14
57049;PMS7003;42935;50.966;16.992;2022-08-19T08:21:37;21;17;13
57049;PMS7003;42935;50.966;16.992;2022-08-19T08:24:47;21;19;15
57049;PMS7003;42935;50.966;16.992;2022-08-19T08:27:59;24;21;15
57049;PMS7003;42935;50.966;16.992;2022-08-19T08:31:10;20;18;13
57049;PMS7003;42935;50.966;16.992;2022-08-19T08:34:21;17;16;13
57049;PMS7003;42935;50.966;16.992;2022-08-19T08:37:30;21;18;15
57049;PMS7003;42935;50.966;16.992;2022-08-19T08:43:56;19;18;13
57049;PMS7003;42935;50.966;16.992;2022-08-19T08:47:11;20;16;13
57049;PMS7003;42935;50.966;16.992;2022-08-19T08:50:27;19;17;13
57049;PMS7003;42935;50.966;16.992;2022-08-19T08:53:45;17;16;12
57049;PMS7003;42935;50.966;16.992;2022-08-19T08:56:59;19;17;14
57049;PMS7003;42935;50.966;16.992;2022-08-19T09:00:12;19;16;11
57049;PMS7003;42935;50.966;16.992;2022-08-19T09:03:27;19;18;13
57049;PMS7003;42935;50.966;16.992;2022-08-19T09:10:16;18;16;12
57049;PMS7003;42935;50.966;16.992;2022-08-19T09:16:58;17;16;13
57049;PMS7003;42935;50.966;16.992;2022-08-19T09:23:31;19;17;13
57049;PMS7003;42935;50.966;16.992;2022-08-19T09:26:42;16;16;12
57049;PMS7003;42935;50.966;16.992;2022-08-19T09:29:53;16;14;11
57049;PMS7003;42935;50.966;16.992;2022-08-19T09:33:02;14;12;10
57049;PMS7003;42935;50.966;16.992;2022-08-19T09:36:17;14;13;11
57049;PMS7003;42935;50.966;16.992;2022-08-19T09:39:30;16;15;11
57049;PMS7003;42935;50.966;16.992;2022-08-19T09:42:46;19;17;11
57049;PMS7003;42935;50.966;16.992;2022-08-19T09:46:21;18;16;11
57049;PMS7003;42935;50.966;16.992;2022-08-19T09:49:34;14;13;10
57049;PMS7003;42935;50.966;16.992;2022-08-19T09:52:45;18;16;12
57049;PMS7003;42935;50.966;16.992;2022-08-19T09:55:55;16;15;11
57049;PMS7003;42935;50.966;16.992;2022-08-19T09:59:05;18;16;11
57049;PMS7003;42935;50.966;16.992;2022-08-19T10:02:16;17;16;12
57049;PMS7003;42935;50.966;16.992;2022-08-19T10:05:25;17;16;12
57049;PMS7003;42935;50.966;16.992;2022-08-19T10:08:47;15;14;10
57049;PMS7003;42935;50.966;16.992;2022-08-19T10:11:58;18;16;12
57049;PMS7003;42935;50.966;16.992;2022-08-19T10:15:14;15;14;10
57049;PMS7003;42935;50.966;16.992;2022-08-19T10:18:27;14;13;10
57049;PMS7003;42935;50.966;16.992;2022-08-19T10:21:37;14;13;9
57049;PMS7003;42935;50.966;16.992;2022-08-19T10:28:40;12;11;9
57049;PMS7003;42935;50.966;16.992;2022-08-19T10:31:52;11;11;9
57049;PMS7003;42935;50.966;16.992;2022-08-19T10:35:03;15;13;10
57049;PMS7003;42935;50.966;16.992;2022-08-19T10:38:49;12;12;10
57049;PMS7003;42935;50.966;16.992;2022-08-19T10:42:30;10;10;8
57049;PMS7003;42935;50.966;16.992;2022-08-19T10:46:12;10;10;7
57049;PMS7003;42935;50.966;16.992;2022-08-19T10:49:54;11;11;8
57049;PMS7003;42935;50.966;16.992;2022-08-19T10:53:44;11;10;8
57049;PMS7003;42935;50.966;16.992;2022-08-19T10:57:22;13;12;9
57049;PMS7003;42935;50.966;16.992;2022-08-19T11:00:34;12;11;9
57049;PMS7003;42935;50.966;16.992;2022-08-19T11:03:49;15;15;9
57049;PMS7003;42935;50.966;16.992;2022-08-19T11:07:02;13;12;9
57049;PMS7003;42935;50.966;16.992;2022-08-19T11:10:14;6;5;4
57049;PMS7003;42935;50.966;16.992;2022-08-19T11:13:33;9;8;6
57049;PMS7003;42935;50.966;16.992;2022-08-19T11:16:45;6;5;4
57049;PMS7003;42935;50.966;16.992;2022-08-19T11:19:54;8;5;4
57049;PMS7003;42935;50.966;16.992;2022-08-19T11:23:03;6;5;4
57049;PMS7003;42935;50.966;16.992;2022-08-19T11:26:15;5;4;3
57049;PMS7003;42935;50.966;16.992;2022-08-19T11:29:24;7;5;4
57049;PMS7003;42935;50.966;16.992;2022-08-19T11:32:37;4;4;3
57049;PMS7003;42935;50.966;16.992;2022-08-19T11:35:47;8;6;5
57049;PMS7003;42935;50.966;16.992;2022-08-19T11:38:55;9;8;6
57049;PMS7003;42935;50.966;16.992;2022-08-19T11:42:08;8;8;6
57049;PMS7003;42935;50.966;16.992;2022-08-19T11:45:30;10;9;6
57049;PMS7003;42935;50.966;16.992;2022-08-19T11:48:39;11;8;6
57049;PMS7003;42935;50.966;16.992;2022-08-19T11:51:50;10;9;8
57049;PMS7003;42935;50.966;16.992;2022-08-19T11:55:02;11;10;8
57049;PMS7003;42935;50.966;16.992;2022-08-19T11:58:18;12;10;8
57049;PMS7003;42935;50.966;16.992;2022-08-19T12:01:29;10;9;6
57049;PMS7003;42935;50.966;16.992;2022-08-19T12:04:39;8;7;6
57049;PMS7003;42935;50.966;16.992;2022-08-19T12:07:51;9;8;7
57049;PMS7003;42935;50.966;16.992;2022-08-19T12:11:03;12;9;7
57049;PMS7003;42935;50.966;16.992;2022-08-19T12:14:17;12;11;9
57049;PMS7003;42935;50.966;16.992;2022-08-19T12:17:26;11;10;8
57049;PMS7003;42935;50.966;16.992;2022-08-19T12:20:41;11;10;8
57049;PMS7003;42935;50.966;16.992;2022-08-19T12:23:57;10;8;6
57049;PMS7003;42935;50.966;16.992;2022-08-19T12:27:06;10;10;7
57049;PMS7003;42935;50.966;16.992;2022-08-19T12:30:13;10;8;7
57049;PMS7003;42935;50.966;16.992;2022-08-19T12:33:24;7;7;6
57049;PMS7003;42935;50.966;16.992;2022-08-19T12:36:36;8;7;7
57049;PMS7003;42935;50.966;16.992;2022-08-19T12:39:46;9;8;7
57049;PMS7003;42935;50.966;16.992;2022-08-19T12:42:57;9;8;6
57049;PMS7003;42935;50.966;16.992;2022-08-19T12:46:04;9;8;7
57049;PMS7003;42935;50.966;16.992;2022-08-19T12:49:15;7;6;6
57049;PMS7003;42935;50.966;16.992;2022-08-19T12:52:23;10;8;7
57049;PMS7003;42935;50.966;16.992;2022-08-19T12:55:37;10;8;6
57049;PMS7003;42935;50.966;16.992;2022-08-19T12:58:49;9;9;6
57049;PMS7003;42935;50.966;16.992;2022-08-19T13:02:01;10;9;7
57049;PMS7003;42935;50.966;16.992;2022-08-19T13:05:16;8;7;6
57049;PMS7003;42935;50.966;16.992;2022-08-19T13:08:31;9;7;6
57049;PMS7003;42935;50.966;16.992;2022-08-19T13:11:43;10;9;7
57049;PMS7003;42935;50.966;16.992;2022-08-19T13:15:03;9;9;7
57049;PMS7003;42935;50.966;16.992;2022-08-19T13:18:15;8;7;5
57049;PMS7003;42935;50.966;16.992;2022-08-19T13:21:26;8;7;5
57049;PMS7003;42935;50.966;16.992;2022-08-19T13:24:39;8;8;6
57049;PMS7003;42935;50.966;16.992;2022-08-19T13:27:48;7;6;5
57049;PMS7003;42935;50.966;16.992;2022-08-19T13:30:59;9;7;6
57049;PMS7003;42935;50.966;16.992;2022-08-19T13:37:39;9;8;6
57049;PMS7003;42935;50.966;16.992;2022-08-19T13:40:50;8;6;5
57049;PMS7003;42935;50.966;16.992;2022-08-19T13:44:02;5;5;4
57049;PMS7003;42935;50.966;16.992;2022-08-19T13:47:15;8;7;5
57049;PMS7003;42935;50.966;16.992;2022-08-19T13:50:28;6;5;5
57049;PMS7003;42935;50.966;16.992;2022-08-19T13:53:36;9;6;5
57049;PMS7003;42935;50.966;16.992;2022-08-19T13:56:47;5;5;4
57049;PMS7003;42935;50.966;16.992;2022-08-19T13:59:58;8;6;5
57049;PMS7003;42935;50.966;16.992;2022-08-19T14:03:10;7;5;4
57049;PMS7003;42935;50.966;16.992;2022-08-19T14:06:21;7;5;4
57049;PMS7003;42935;50.966;16.992;2022-08-19T14:09:33;11;6;4
57049;PMS7003;42935;50.966;16.992;2022-08-19T14:12:47;7;6;4
57049;PMS7003;42935;50.966;16.992;2022-08-19T14:15:59;8;7;5
57049;PMS7003;42935;50.966;16.992;2022-08-19T14:19:06;7;7;5
57049;PMS7003;42935;50.966;16.992;2022-08-19T14:22:17;10;7;5
57049;PMS7003;42935;50.966;16.992;2022-08-19T14:25:33;11;8;6
57049;PMS7003;42935;50.966;16.992;2022-08-19T14:28:42;9;5;5
57049;PMS7003;42935;50.966;16.992;2022-08-19T14:31:54;8;6;4
57049;PMS7003;42935;50.966;16.992;2022-08-19T14:35:06;8;7;5
57049;PMS7003;42935;50.966;16.992;2022-08-19T14:38:17;8;6;5
57049;PMS7003;42935;50.966;16.992;2022-08-19T14:41:29;8;6;5
57049;PMS7003;42935;50.966;16.992;2022-08-19T14:45:11;10;9;6
57049;PMS7003;42935;50.966;16.992;2022-08-19T14:48:21;13;12;8
57049;PMS7003;42935;50.966;16.992;2022-08-19T14:52:03;13;11;9
57049;PMS7003;42935;50.966;16.992;2022-08-19T14:55:13;10;10;7
57049;PMS7003;42935;50.966;16.992;2022-08-19T14:58:26;15;13;9
57049;PMS7003;42935;50.966;16.992;2022-08-19T15:01:34;13;11;8
57049;PMS7003;42935;50.966;16.992;2022-08-19T15:04:45;11;10;8
57049;PMS7003;42935;50.966;16.992;2022-08-19T15:07:56;12;11;8
57049;PMS7003;42935;50.966;16.992;2022-08-19T15:11:06;11;10;8
57049;PMS7003;42935;50.966;16.992;2022-08-19T15:14:26;14;10;7
57049;PMS7003;42935;50.966;16.992;2022-08-19T15:17:46;10;9;6
57049;PMS7003;42935;50.966;16.992;2022-08-19T15:20:57;12;11;9
57049;PMS7003;42935;50.966;16.992;2022-08-19T15:24:10;21;16;12
57049;PMS7003;42935;50.966;16.992;2022-08-19T15:27:20;22;18;13
57049;PMS7003;42935;50.966;16.992;2022-08-19T15:30:32;27;25;19
57049;PMS7003;42935;50.966;16.992;2022-08-19T15:33:42;26;23;16
57049;PMS7003;42935;50.966;16.992;2022-08-19T15:36:52;29;26;19
57049;PMS7003;42935;50.966;16.992;2022-08-19T15:40:09;29;26;18
57049;PMS7003;42935;50.966;16.992;2022-08-19T15:43:19;29;27;19
57049;PMS7003;42935;50.966;16.992;2022-08-19T15:46:31;34;29;21
57049;PMS7003;42935;50.966;16.992;2022-08-19T15:50:16;36;30;21
57049;PMS7003;42935;50.966;16.992;2022-08-19T15:54:07;36;29;20
57049;PMS7003;42935;50.966;16.992;2022-08-19T15:57:20;33;29;20
57049;PMS7003;42935;50.966;16.992;2022-08-19T16:00:46;37;32;22
57049;PMS7003;42935;50.966;16.992;2022-08-19T16:04:08;38;33;22
57049;PMS7003;42935;50.966;16.992;2022-08-19T16:07:29;36;31;21
57049;PMS7003;42935;50.966;16.992;2022-08-19T16:10:42;36;31;21
57049;PMS7003;42935;50.966;16.992;2022-08-19T16:14:00;38;31;22
57049;PMS7003;42935;50.966;16.992;2022-08-19T16:36:40;33;30;20
57049;PMS7003;42935;50.966;16.992;2022-08-19T16:39:51;36;31;20
57049;PMS7003;42935;50.966;16.992;2022-08-19T16:43:02;33;30;20
57049;PMS7003;42935;50.966;16.992;2022-08-19T16:46:10;31;28;19
57049;PMS7003;42935;50.966;16.992;2022-08-19T16:49:26;32;28;19
57049;PMS7003;42935;50.966;16.992;2022-08-19T16:52:35;31;28;20
57049;PMS7003;42935;50.966;16.992;2022-08-19T16:55:46;29;27;19
57049;PMS7003;42935;50.966;16.992;2022-08-19T16:59:09;32;29;20
57049;PMS7003;42935;50.966;16.992;2022-08-19T17:02:26;30;27;18
57049;PMS7003;42935;50.966;16.992;2022-08-19T17:08:58;31;29;19
57049;PMS7003;42935;50.966;16.992;2022-08-19T17:12:11;33;29;20
57049;PMS7003;42935;50.966;16.992;2022-08-19T17:15:22;29;26;19
57049;PMS7003;42935;50.966;16.992;2022-08-19T17:18:32;32;29;19
57049;PMS7003;42935;50.966;16.992;2022-08-19T17:21:42;35;30;20
57049;PMS7003;42935;50.966;16.992;2022-08-19T17:24:52;30;27;19
57049;PMS7003;42935;50.966;16.992;2022-08-19T17:28:06;30;27;19
57049;PMS7003;42935;50.966;16.992;2022-08-19T17:31:19;33;28;20
57049;PMS7003;42935;50.966;16.992;2022-08-19T17:34:32;32;28;20
57049;PMS7003;42935;50.966;16.992;2022-08-19T17:37:42;36;31;20
57049;PMS7003;42935;50.966;16.992;2022-08-19T17:40:56;32;28;19
57049;PMS7003;42935;50.966;16.992;2022-08-19T17:44:11;33;29;20
57049;PMS7003;42935;50.966;16.992;2022-08-19T17:47:21;32;28;20
57049;PMS7003;42935;50.966;16.992;2022-08-19T17:50:35;32;28;19
57049;PMS7003;42935;50.966;16.992;2022-08-19T17:53:51;34;30;20
57049;PMS7003;42935;50.966;16.992;2022-08-19T17:57:12;34;29;20
57049;PMS7003;42935;50.966;16.992;2022-08-19T18:00:31;33;28;19
57049;PMS7003;42935;50.966;16.992;2022-08-19T18:03:44;32;28;19
57049;PMS7003;42935;50.966;16.992;2022-08-19T18:06:58;33;28;19
57049;PMS7003;42935;50.966;16.992;2022-08-19T18:10:45;30;27;19
57049;PMS7003;42935;50.966;16.992;2022-08-19T18:13:55;28;26;18
57049;PMS7003;42935;50.966;16.992;2022-08-19T18:17:12;32;28;20
57049;PMS7003;42935;50.966;16.992;2022-08-19T18:20:29;29;28;19
57049;PMS7003;42935;50.966;16.992;2022-08-19T18:24:14;34;30;20
57049;PMS7003;42935;50.966;16.992;2022-08-19T18:27:25;34;31;21
57049;PMS7003;42935;50.966;16.992;2022-08-19T18:30:34;29;28;19
57049;PMS7003;42935;50.966;16.992;2022-08-19T18:33:44;26;25;17
57049;PMS7003;42935;50.966;16.992;2022-08-19T18:37:07;32;28;20
57049;PMS7003;42935;50.966;16.992;2022-08-19T18:40:20;33;28;20
57049;PMS7003;42935;50.966;16.992;2022-08-19T18:43:41;28;27;18
57049;PMS7003;42935;50.966;16.992;2022-08-19T18:47:03;36;31;22
57049;PMS7003;42935;50.966;16.992;2022-08-19T18:50:30;33;29;20
57049;PMS7003;42935;50.966;16.992;2022-08-19T18:53:39;32;27;19
57049;PMS7003;42935;50.966;16.992;2022-08-19T18:56:55;32;27;18
57049;PMS7003;42935;50.966;16.992;2022-08-19T19:00:12;33;30;20
57049;PMS7003;42935;50.966;16.992;2022-08-19T19:03:27;33;27;19
57049;PMS7003;42935;50.966;16.992;2022-08-19T19:06:37;33;29;19
57049;PMS7003;42935;50.966;16.992;2022-08-19T19:09:53;29;27;19
57049;PMS7003;42935;50.966;16.992;2022-08-19T19:13:04;30;28;19
57049;PMS7003;42935;50.966;16.992;2022-08-19T19:16:14;30;29;20
57049;PMS7003;42935;50.966;16.992;2022-08-19T19:19:28;33;28;19
57049;PMS7003;42935;50.966;16.992;2022-08-19T19:22:40;33;29;20
57049;PMS7003;42935;50.966;16.992;2022-08-19T19:25:54;38;30;20
57049;PMS7003;42935;50.966;16.992;2022-08-19T19:29:05;33;28;20
57049;PMS7003;42935;50.966;16.992;2022-08-19T19:32:21;38;32;21
57049;PMS7003;42935;50.966;16.992;2022-08-19T19:35:43;36;32;21
57049;PMS7003;42935;50.966;16.992;2022-08-19T19:39:02;40;34;22
57049;PMS7003;42935;50.966;16.992;2022-08-19T19:42:19;42;34;23
57049;PMS7003;42935;50.966;16.992;2022-08-19T19:45:35;40;34;22
57049;PMS7003;42935;50.966;16.992;2022-08-19T19:48:50;39;32;22
57049;PMS7003;42935;50.966;16.992;2022-08-19T19:52:10;43;34;22
57049;PMS7003;42935;50.966;16.992;2022-08-19T19:55:31;39;32;21
57049;PMS7003;42935;50.966;16.992;2022-08-19T19:58:41;37;33;22
57049;PMS7003;42935;50.966;16.992;2022-08-19T20:01:54;35;30;21
57049;PMS7003;42935;50.966;16.992;2022-08-19T20:05:10;27;25;18
57049;PMS7003;42935;50.966;16.992;2022-08-19T20:08:21;28;26;18
57049;PMS7003;42935;50.966;16.992;2022-08-19T20:11:46;23;22;16
57049;PMS7003;42935;50.966;16.992;2022-08-19T20:15:01;26;23;16
57049;PMS7003;42935;50.966;16.992;2022-08-19T20:18:14;24;22;16
57049;PMS7003;42935;50.966;16.992;2022-08-19T20:21:21;23;21;15
57049;PMS7003;42935;50.966;16.992;2022-08-19T20:24:34;23;21;15
57049;PMS7003;42935;50.966;16.992;2022-08-19T20:27:46;22;21;14
57049;PMS7003;42935;50.966;16.992;2022-08-19T20:30:55;26;23;17
57049;PMS7003;42935;50.966;16.992;2022-08-19T20:34:04;22;20;14
57049;PMS7003;42935;50.966;16.992;2022-08-19T20:37:14;21;19;13
57049;PMS7003;42935;50.966;16.992;2022-08-19T20:40:26;19;18;14
57049;PMS7003;42935;50.966;16.992;2022-08-19T20:43:36;20;19;14
57049;PMS7003;42935;50.966;16.992;2022-08-19T20:46:50;23;20;15
57049;PMS7003;42935;50.966;16.992;2022-08-19T20:50:03;21;19;14
57049;PMS7003;42935;50.966;16.992;2022-08-19T20:53:18;23;20;15
57049;PMS7003;42935;50.966;16.992;2022-08-19T20:56:32;23;20;15
57049;PMS7003;42935;50.966;16.992;2022-08-19T20:59:47;23;22;15
57049;PMS7003;42935;50.966;16.992;2022-08-19T21:02:57;26;22;16
57049;PMS7003;42935;50.966;16.992;2022-08-19T21:06:10;26;22;15
57049;PMS7003;42935;50.966;16.992;2022-08-19T21:09:49;25;22;16
57049;PMS7003;42935;50.966;16.992;2022-08-19T21:12:59;24;20;15
57049;PMS7003;42935;50.966;16.992;2022-08-19T21:16:11;22;20;15
57049;PMS7003;42935;50.966;16.992;2022-08-19T21:19:50;23;20;15
57049;PMS7003;42935;50.966;16.992;2022-08-19T21:23:08;20;18;12
57049;PMS7003;42935;50.966;16.992;2022-08-19T21:26:21;19;17;12
57049;PMS7003;42935;50.966;16.992;2022-08-19T21:29:31;21;18;13
57049;PMS7003;42935;50.966;16.992;2022-08-19T21:32:49;22;19;14